Time;durP1;ratioP1;P1;durP2;ratioP2;P2;SDS_P1;SDS_P2;PMS_P1;PMS_P2;Temp;Humidity;BMP_temperature;BMP_pressure;BME280_temperature;BME280_humidity;BME280_pressure;Samples;Min_cycle;Max_cycle;Signal;HPM_P1;HPM_P2
2020/12/20 00:00:33;;;;;;;10.50;9.50;;;;;;;9.85;65.70;101323.03;5036953;28;20181;-72
2020/12/20 00:02:58;;;;;;;9.80;8.80;;;;;;;10.16;65.32;101328.91;5037533;28;20387;-74
2020/12/20 00:05:24;;;;;;;9.97;8.87;;;;;;;10.24;64.83;101325.63;5036777;28;20697;-73
2020/12/20 00:07:51;;;;;;;10.47;9.30;;;;;;;10.19;64.96;101327.25;5036667;28;20256;-76
2020/12/20 00:10:17;;;;;;;10.07;9.07;;;;;;;10.13;65.18;101321.03;5036973;28;20738;-73
2020/12/20 00:12:42;;;;;;;9.43;8.53;;;;;;;9.99;64.97;101323.34;5036734;28;20424;-75
2020/12/20 00:15:08;;;;;;;10.10;9.10;;;;;;;10.07;65.07;101335.69;5036695;28;20178;-77
2020/12/20 00:17:34;;;;;;;9.60;8.67;;;;;;;9.81;65.98;101331.63;5037104;28;20246;-73
2020/12/20 00:20:00;;;;;;;9.03;8.13;;;;;;;10.01;65.20;101329.47;5036568;28;20170;-72
2020/12/20 00:22:25;;;;;;;9.93;9.00;;;;;;;9.93;65.39;101329.28;5036400;28;20265;-72
2020/12/20 00:24:51;;;;;;;9.83;8.93;;;;;;;9.82;65.51;101328.19;5036216;28;20856;-73
2020/12/20 00:27:16;;;;;;;9.87;8.97;;;;;;;9.80;66.26;101332.50;5036338;28;20468;-73
2020/12/20 00:29:42;;;;;;;9.67;8.87;;;;;;;9.71;66.00;101331.41;5036608;28;20170;-74
2020/12/20 00:32:10;;;;;;;9.40;8.50;;;;;;;9.66;66.37;101334.75;5036218;28;20243;-71
2020/12/20 00:34:36;;;;;;;11.03;9.63;;;;;;;9.25;67.35;101327.72;5036137;28;20830;-73
2020/12/20 00:37:03;;;;;;;11.63;8.93;;;;;;;9.27;67.85;101328.66;5036641;28;20743;-71
2020/12/20 00:39:28;;;;;;;9.50;8.57;;;;;;;9.38;67.73;101335.00;5036028;28;20999;-73
2020/12/20 00:42:02;;;;;;;9.47;8.57;;;;;;;9.32;67.83;101342.63;5035576;28;20413;-73
2020/12/20 00:44:28;;;;;;;10.60;9.40;;;;;;;9.20;68.13;101343.25;5036642;28;20256;-72
2020/12/20 00:46:57;;;;;;;9.27;8.37;;;;;;;9.24;68.00;101346.78;5036609;28;20571;-73
2020/12/20 00:49:23;;;;;;;11.30;9.83;;;;;;;8.83;69.30;101347.47;5036520;28;20185;-72
2020/12/20 00:51:48;;;;;;;9.90;9.00;;;;;;;8.99;69.28;101348.75;5036281;28;20830;-72
2020/12/20 00:54:14;;;;;;;10.13;9.13;;;;;;;8.86;69.03;101354.47;5028711;28;20448;-72
2020/12/20 00:56:40;;;;;;;11.60;10.10;;;;;;;9.07;68.82;101356.78;5035013;28;20211;-74
2020/12/20 00:59:05;;;;;;;10.80;9.70;;;;;;;8.90;69.28;101348.53;5035692;28;20185;-73
2020/12/20 01:01:30;;;;;;;9.80;8.90;;;;;;;9.02;68.71;101359.25;5035746;28;20181;-72
2020/12/20 01:03:56;;;;;;;10.97;9.80;;;;;;;8.96;68.93;101366.91;5035840;28;20181;-73
2020/12/20 01:06:22;;;;;;;10.90;9.80;;;;;;;8.84;69.35;101363.97;5035677;28;20580;-71
2020/12/20 01:08:48;;;;;;;10.10;9.10;;;;;;;8.74;69.38;101373.22;5035209;28;20206;-70
2020/12/20 01:11:14;;;;;;;9.90;8.90;;;;;;;8.71;69.62;101366.25;5036095;28;20413;-70
2020/12/20 01:13:44;;;;;;;10.97;9.90;;;;;;;8.75;69.80;101365.50;5036131;28;20433;-70
2020/12/20 01:16:31;;;;;;;10.67;9.57;;;;;;;9.06;69.38;101368.00;5034990;28;20332;-71
2020/12/20 01:18:58;;;;;;;10.53;9.53;;;;;;;8.70;69.73;101366.19;5035450;28;20409;-70
2020/12/20 01:21:23;;;;;;;11.47;10.27;;;;;;;8.89;69.31;101362.34;5035965;28;20899;-71
2020/12/20 01:23:49;;;;;;;11.37;10.27;;;;;;;8.88;68.95;101360.63;5035725;28;20544;-72
2020/12/20 01:26:15;;;;;;;10.77;9.67;;;;;;;8.79;69.66;101365.56;5033537;28;20212;-73
2020/12/20 01:28:41;;;;;;;10.40;9.40;;;;;;;8.73;69.78;101359.34;5035066;28;20261;-71
2020/12/20 01:31:07;;;;;;;10.13;9.03;;;;;;;8.79;69.70;101362.97;5034775;28;20182;-72
2020/12/20 01:33:35;;;;;;;10.10;9.00;;;;;;;8.70;70.14;101360.97;5035666;28;20492;-75
2020/12/20 01:36:07;;;;;;;11.40;9.40;;;;;;;8.76;69.51;101369.81;5035810;28;20721;-75
2020/12/20 01:38:33;;;;;;;10.23;9.30;;;;;;;8.82;69.11;101360.44;5035628;28;20413;-73
2020/12/20 01:40:58;;;;;;;10.60;9.60;;;;;;;8.67;69.92;101360.91;5035940;28;20471;-72
2020/12/20 01:43:24;;;;;;;10.10;9.20;;;;;;;8.65;69.91;101363.47;5035733;28;20479;-72
2020/12/20 01:45:50;;;;;;;9.67;8.73;;;;;;;8.80;69.36;101367.34;5035265;28;20203;-72
2020/12/20 01:48:15;;;;;;;11.20;9.53;;;;;;;8.72;69.70;101373.19;5035970;28;20162;-71
2020/12/20 01:50:42;;;;;;;10.30;8.97;;;;;;;8.76;69.27;101371.56;5035545;28;20917;-73
2020/12/20 01:53:08;;;;;;;10.60;9.50;;;;;;;8.51;70.43;101378.69;5035607;28;20257;-72
2020/12/20 01:55:34;;;;;;;10.70;9.70;;;;;;;8.47;70.58;101368.13;5035376;28;20540;-72
2020/12/20 01:57:59;;;;;;;10.30;9.40;;;;;;;8.64;69.91;101356.50;5035525;28;20273;-73
2020/12/20 02:00:25;;;;;;;10.00;9.10;;;;;;;8.68;69.70;101362.66;5035255;28;20178;-75
2020/12/20 02:02:50;;;;;;;10.27;9.13;;;;;;;8.34;70.70;101359.97;5035872;28;20162;-71
2020/12/20 02:05:17;;;;;;;9.83;8.93;;;;;;;8.34;70.41;101367.75;5039149;28;20178;-73
2020/12/20 02:07:42;;;;;;;13.83;11.10;;;;;;;8.26;70.88;101366.66;5039059;28;20486;-73
2020/12/20 02:10:08;;;;;;;10.80;9.70;;;;;;;8.41;70.72;101379.22;5038432;28;20424;-73
2020/12/20 02:12:33;;;;;;;10.77;9.77;;;;;;;8.34;70.60;101366.91;5038594;28;20178;-74
2020/12/20 02:14:59;;;;;;;10.63;9.60;;;;;;;8.50;70.33;101373.44;5038946;28;20186;-75
2020/12/20 02:17:24;;;;;;;11.20;9.70;;;;;;;8.43;70.47;101362.84;5038900;28;20312;-72
2020/12/20 02:19:49;;;;;;;12.90;10.00;;;;;;;8.12;71.14;101365.38;5037757;28;20174;-72
2020/12/20 02:22:15;;;;;;;11.13;9.20;;;;;;;8.09;71.36;101364.44;5038733;28;20181;-70
2020/12/20 02:24:41;;;;;;;10.00;8.93;;;;;;;8.05;71.74;101359.09;5038233;28;20473;-72
2020/12/20 02:27:06;;;;;;;10.50;9.50;;;;;;;8.42;71.58;101361.06;5038571;28;20351;-74
2020/12/20 02:29:32;;;;;;;10.57;9.47;;;;;;;8.39;70.82;101366.19;5038317;28;20178;-75
2020/12/20 02:31:58;;;;;;;10.40;9.30;;;;;;;8.21;71.46;101363.03;5038202;28;20182;-74
2020/12/20 02:34:24;;;;;;;10.63;9.57;;;;;;;8.33;71.04;101359.94;5038436;28;20191;-73
2020/12/20 02:36:49;;;;;;;11.00;9.13;;;;;;;8.17;71.04;101359.50;5038439;28;20414;-73
2020/12/20 02:39:15;;;;;;;11.70;9.30;;;;;;;8.20;71.20;101366.47;5037702;28;20433;-73
2020/12/20 02:41:40;;;;;;;10.47;9.37;;;;;;;8.17;71.18;101362.09;5038245;28;20171;-73
2020/12/20 02:44:06;;;;;;;13.43;8.90;;;;;;;8.29;70.74;101365.88;5038447;28;20650;-73
2020/12/20 02:46:31;;;;;;;10.40;9.40;;;;;;;8.11;71.25;101366.22;5037731;28;20214;-73
2020/12/20 02:48:57;;;;;;;11.97;9.23;;;;;;;8.10;71.87;101367.91;5037991;28;20567;-72
2020/12/20 02:51:23;;;;;;;9.50;8.60;;;;;;;8.20;70.89;101369.06;5037285;28;20249;-73
2020/12/20 02:53:48;;;;;;;9.63;8.63;;;;;;;8.18;71.53;101356.03;5037501;28;20174;-73
2020/12/20 02:56:14;;;;;;;11.57;9.77;;;;;;;8.02;71.24;101365.09;5038778;28;20387;-74
2020/12/20 02:58:40;;;;;;;9.67;8.60;;;;;;;8.01;71.26;101357.25;5038794;28;20162;-73
2020/12/20 03:01:05;;;;;;;9.87;8.70;;;;;;;8.06;71.43;101356.59;5038745;28;20174;-72
2020/12/20 03:03:30;;;;;;;9.90;8.90;;;;;;;8.07;71.18;101360.03;5021536;28;20477;-73
2020/12/20 03:05:56;;;;;;;9.87;8.97;;;;;;;8.08;71.46;101360.09;5039236;28;20191;-72
2020/12/20 03:08:21;;;;;;;10.63;9.23;;;;;;;8.15;70.91;101355.97;5038718;28;20174;-72
2020/12/20 03:10:46;;;;;;;9.90;9.00;;;;;;;8.20;70.97;101358.69;5038068;28;20723;-73
2020/12/20 03:13:12;;;;;;;10.03;9.03;;;;;;;8.20;70.78;101358.69;5038944;28;20162;-72
2020/12/20 03:15:41;;;;;;;9.77;8.77;;;;;;;8.15;71.28;101349.91;5038021;28;20419;-73
2020/12/20 03:18:07;;;;;;;10.60;9.50;;;;;;;8.07;70.79;101347.94;5038559;28;20202;-73
2020/12/20 03:20:32;;;;;;;11.23;8.40;;;;;;;8.07;70.39;101345.34;5038459;28;20417;-73
2020/12/20 03:22:59;;;;;;;10.60;9.50;;;;;;;8.08;71.10;101344.50;5038206;28;20425;-73
2020/12/20 03:25:24;;;;;;;11.20;8.40;;;;;;;8.03;71.24;101347.81;5038230;28;20218;-72
2020/12/20 03:27:49;;;;;;;9.73;8.47;;;;;;;8.09;70.82;101345.38;5037741;28;20536;-73
2020/12/20 03:30:15;;;;;;;9.90;8.90;;;;;;;8.03;71.07;101346.06;5038052;28;20194;-72
2020/12/20 03:32:41;;;;;;;10.47;9.47;;;;;;;8.24;70.70;101360.53;5038089;28;20174;-72
2020/12/20 03:35:06;;;;;;;9.80;8.80;;;;;;;8.13;70.65;101361.94;5038508;28;20166;-72
2020/12/20 03:37:31;;;;;;;9.63;8.33;;;;;;;7.83;71.74;101363.66;5038018;28;20413;-72
2020/12/20 03:39:57;;;;;;;9.00;8.10;;;;;;;8.02;70.75;101346.91;5038000;28;20265;-72
2020/12/20 03:42:22;;;;;;;9.47;8.50;;;;;;;8.20;70.24;101351.78;5038484;28;20520;-72
2020/12/20 03:44:47;;;;;;;9.43;8.43;;;;;;;8.44;69.56;101358.50;5037787;28;20189;-73
2020/12/20 03:47:13;;;;;;;9.90;8.90;;;;;;;8.42;69.33;101350.66;5037911;28;20213;-73
2020/12/20 03:49:38;;;;;;;9.60;8.67;;;;;;;8.30;69.80;101360.72;5038010;28;20532;-73
2020/12/20 03:52:03;;;;;;;9.43;8.53;;;;;;;8.26;69.88;101367.53;5037829;28;20205;-72
2020/12/20 03:54:29;;;;;;;10.30;9.30;;;;;;;8.43;69.05;101372.34;5036919;28;20175;-73
2020/12/20 03:56:55;;;;;;;9.60;8.70;;;;;;;8.41;69.52;101377.47;5038013;28;20170;-73
2020/12/20 03:59:21;;;;;;;9.43;8.53;;;;;;;8.36;69.62;101379.09;5037591;28;20173;-73
2020/12/20 04:01:47;;;;;;;9.50;8.57;;;;;;;8.29;69.70;101378.84;5037621;28;20691;-73
2020/12/20 04:04:12;;;;;;;9.80;8.80;;;;;;;8.37;69.41;101378.22;5037920;28;20384;-72
2020/12/20 04:06:37;;;;;;;9.87;8.87;;;;;;;8.25;70.11;101388.28;5037354;28;20467;-73
2020/12/20 04:09:03;;;;;;;9.27;8.37;;;;;;;8.12;70.04;101384.44;5037279;28;20597;-73
2020/12/20 04:11:28;;;;;;;10.17;8.63;;;;;;;8.33;69.74;101386.78;5037818;28;20162;-72
2020/12/20 04:13:53;;;;;;;11.10;10.13;;;;;;;8.30;69.87;101380.63;5037455;28;20173;-74
2020/12/20 04:16:19;;;;;;;9.10;8.20;;;;;;;8.27;69.61;101386.63;5037384;28;20181;-73
2020/12/20 04:18:44;;;;;;;9.80;8.90;;;;;;;8.17;70.31;101375.06;5037522;28;20441;-72
2020/12/20 04:21:09;;;;;;;9.73;8.50;;;;;;;8.24;70.01;101378.72;5037306;28;20166;-71
2020/12/20 04:23:35;;;;;;;9.13;8.23;;;;;;;8.38;69.82;101376.53;5037251;28;20213;-72
2020/12/20 04:26:00;;;;;;;9.23;8.33;;;;;;;8.36;69.33;101376.50;5036833;28;20195;-72
2020/12/20 04:28:26;;;;;;;9.20;8.30;;;;;;;8.48;68.97;101377.72;5037239;28;20193;-72
2020/12/20 04:30:51;;;;;;;9.77;8.80;;;;;;;8.39;69.11;101371.38;5036935;28;20182;-73
2020/12/20 04:33:17;;;;;;;9.60;8.60;;;;;;;8.58;69.05;101367.63;5037542;28;20444;-72
2020/12/20 04:35:42;;;;;;;9.23;8.40;;;;;;;8.56;69.26;101371.00;5037229;28;20174;-73
2020/12/20 04:38:07;;;;;;;9.53;8.53;;;;;;;8.51;68.94;101370.00;5037111;28;20174;-73
2020/12/20 04:40:33;;;;;;;8.63;7.83;;;;;;;8.30;69.17;101368.50;5037160;28;20170;-72
2020/12/20 04:43:04;;;;;;;9.47;8.47;;;;;;;8.58;68.61;101369.34;5036903;28;20181;-72
2020/12/20 04:45:30;;;;;;;9.23;8.40;;;;;;;8.75;69.09;101369.78;5036974;28;20171;-72
2020/12/20 04:47:56;;;;;;;9.73;8.57;;;;;;;8.65;68.53;101360.88;5036564;28;20850;-73
2020/12/20 04:50:23;;;;;;;9.70;8.73;;;;;;;8.55;69.72;101371.84;5036816;28;20182;-72
2020/12/20 04:52:50;;;;;;;9.60;8.80;;;;;;;8.64;68.58;101366.91;5036719;28;20504;-73
2020/12/20 04:55:16;;;;;;;9.10;8.30;;;;;;;8.48;69.06;101373.38;5036547;28;20384;-72
2020/12/20 04:57:42;;;;;;;8.87;8.07;;;;;;;8.58;69.16;101371.94;5036728;28;20691;-72
2020/12/20 05:00:07;;;;;;;9.63;8.83;;;;;;;8.18;69.81;101375.94;5036755;28;20185;-73
2020/12/20 05:02:33;;;;;;;8.97;8.07;;;;;;;8.13;70.18;101387.91;5037127;28;20420;-71
2020/12/20 05:04:59;;;;;;;9.73;8.83;;;;;;;8.25;70.00;101370.09;5036655;28;20586;-71
2020/12/20 05:07:24;;;;;;;9.00;8.10;;;;;;;8.41;69.51;101384.41;5036639;28;20248;-72
2020/12/20 05:09:50;;;;;;;9.70;8.80;;;;;;;8.20;69.89;101382.94;5036990;28;20204;-71
2020/12/20 05:12:29;;;;;;;9.70;8.80;;;;;;;8.17;70.61;101384.56;5036697;28;20478;-72
2020/12/20 05:14:55;;;;;;;10.03;9.03;;;;;;;8.04;70.36;101392.00;5036551;28;20179;-72
2020/12/20 05:17:21;;;;;;;8.80;8.00;;;;;;;8.17;70.35;101376.78;5036729;28;20482;-72
2020/12/20 05:19:46;;;;;;;8.50;7.60;;;;;;;8.18;70.13;101375.94;5036606;28;20421;-72
2020/12/20 05:22:16;;;;;;;9.87;8.30;;;;;;;8.19;70.25;101377.72;5036967;28;20174;-72
2020/12/20 05:24:42;;;;;;;8.80;8.03;;;;;;;8.17;70.24;101385.47;5036294;28;20309;-72
2020/12/20 05:27:23;;;;;;;9.50;8.60;;;;;;;8.13;70.28;101388.78;5036520;28;20460;-72
2020/12/20 05:30:13;;;;;;;8.83;8.03;;;;;;;8.29;70.26;101376.25;5036543;28;20444;-72
2020/12/20 05:32:40;;;;;;;9.27;8.30;;;;;;;8.12;70.79;101384.44;5036809;28;20811;-72
2020/12/20 05:35:09;;;;;;;9.00;8.17;;;;;;;8.19;70.53;101378.59;5036565;28;20707;-71
2020/12/20 05:37:35;;;;;;;8.60;7.80;;;;;;;8.31;70.14;101378.06;5037724;28;20417;-72
2020/12/20 05:40:09;;;;;;;8.87;8.07;;;;;;;8.20;69.88;101388.16;5040608;28;20401;-72
2020/12/20 05:42:35;;;;;;;9.93;8.50;;;;;;;8.22;70.09;101388.19;5040286;28;20188;-71
2020/12/20 05:45:17;;;;;;;9.67;8.67;;;;;;;8.41;69.83;101392.19;5040156;28;20429;-72
2020/12/20 05:47:44;;;;;;;8.80;8.00;;;;;;;8.37;69.19;101399.00;5040181;28;20467;-72
2020/12/20 05:50:11;;;;;;;9.47;8.57;;;;;;;8.30;69.90;101402.28;5040146;28;20451;-71
2020/12/20 05:52:37;;;;;;;9.33;8.27;;;;;;;8.27;69.96;101395.28;5039919;28;20541;-72
2020/12/20 05:55:13;;;;;;;10.20;8.40;;;;;;;8.53;69.10;101400.38;5040003;28;20424;-72
2020/12/20 05:57:39;;;;;;;8.57;7.77;;;;;;;8.43;69.43;101388.81;5039272;28;20174;-73
2020/12/20 06:00:06;;;;;;;8.63;7.93;;;;;;;8.30;69.94;101399.69;5039809;28;20503;-72
2020/12/20 06:02:31;;;;;;;9.53;8.63;;;;;;;8.30;69.76;101398.81;5040229;28;20413;-72
2020/12/20 06:05:00;;;;;;;9.87;8.87;;;;;;;8.51;68.92;101399.47;5039667;28;20503;-71
2020/12/20 06:07:26;;;;;;;9.13;8.27;;;;;;;8.38;69.54;101405.97;5039768;28;20229;-72
2020/12/20 06:09:59;;;;;;;8.70;7.80;;;;;;;8.48;69.04;101406.28;5039983;28;21064;-72
2020/12/20 06:12:28;;;;;;;9.80;8.90;;;;;;;8.39;69.40;101402.56;5039800;28;20427;-72
2020/12/20 06:14:55;;;;;;;10.27;8.70;;;;;;;8.42;69.06;101402.63;5039351;28;20399;-72
2020/12/20 06:17:21;;;;;;;8.77;7.97;;;;;;;8.49;69.14;101397.66;5039644;28;20463;-72
2020/12/20 06:19:51;;;;;;;9.03;8.20;;;;;;;8.47;69.31;101404.53;5039407;28;20483;-72
2020/12/20 06:22:25;;;;;;;9.03;8.10;;;;;;;8.12;70.32;101405.22;5039888;28;20796;-72
2020/12/20 06:24:52;;;;;;;9.10;8.30;;;;;;;8.18;70.02;101402.78;5039180;28;20468;-72
2020/12/20 06:27:19;;;;;;;9.83;8.90;;;;;;;8.49;68.92;101406.31;5039274;28;20483;-72
2020/12/20 06:29:53;;;;;;;8.33;7.47;;;;;;;8.50;69.29;101407.22;5039332;28;21032;-72
2020/12/20 06:32:55;;;;;;;9.47;8.57;;;;;;;8.31;69.68;101409.25;5039264;28;20409;-72
2020/12/20 06:35:29;;;;;;;11.33;9.10;;;;;;;8.46;69.20;101401.06;5021203;28;20518;-73
2020/12/20 06:37:55;;;;;;;8.50;7.70;;;;;;;8.41;69.75;101406.06;5039097;28;20429;-72
2020/12/20 06:40:40;;;;;;;9.10;8.30;;;;;;;8.48;69.07;101395.91;5039175;28;20480;-72
2020/12/20 06:43:07;;;;;;;11.50;9.23;;;;;;;8.33;70.07;101393.69;5039275;28;20689;-72
2020/12/20 06:45:39;;;;;;;9.73;8.80;;;;;;;8.36;69.68;101397.28;5039246;28;20701;-73
2020/12/20 06:48:07;;;;;;;9.23;8.40;;;;;;;8.45;68.87;101398.38;5038945;28;20592;-73
2020/12/20 06:50:35;;;;;;;9.30;8.40;;;;;;;8.40;68.80;101399.13;5037888;28;20688;-72
2020/12/20 06:53:00;;;;;;;9.40;8.50;;;;;;;8.50;69.34;101396.84;5038685;28;20451;-72
2020/12/20 06:55:25;;;;;;;9.40;8.33;;;;;;;8.47;69.27;101383.72;5039112;28;20421;-72
2020/12/20 06:58:03;;;;;;;8.70;7.90;;;;;;;8.47;68.88;101400.22;5038869;28;20806;-72
2020/12/20 07:00:45;;;;;;;8.80;7.90;;;;;;;8.43;69.11;101396.59;5038668;28;20320;-73
2020/12/20 07:03:34;;;;;;;9.37;8.47;;;;;;;8.47;69.57;101396.72;5021236;28;20582;-73
2020/12/20 07:06:10;;;;;;;9.80;8.90;;;;;;;8.64;68.85;101394.63;5038504;28;20457;-73
2020/12/20 07:08:36;;;;;;;9.53;8.63;;;;;;;8.67;68.33;101403.38;5038326;28;20424;-72
2020/12/20 07:11:17;;;;;;;9.37;8.57;;;;;;;8.56;68.99;101405.66;5038273;28;20427;-73
2020/12/20 07:13:44;;;;;;;10.70;8.60;;;;;;;8.41;68.98;101400.88;5038818;28;20540;-72
2020/12/20 07:16:13;;;;;;;9.70;8.80;;;;;;;8.36;69.27;101401.56;5038509;28;20425;-72
2020/12/20 07:18:52;;;;;;;9.33;8.50;;;;;;;8.20;69.73;101393.34;5038178;28;20421;-73
2020/12/20 07:21:20;;;;;;;9.57;8.60;;;;;;;8.57;68.55;101397.03;5038321;28;20413;-73
2020/12/20 07:23:46;;;;;;;9.77;8.87;;;;;;;8.55;68.98;101403.03;5038089;28;20421;-73
2020/12/20 07:26:12;;;;;;;10.17;9.00;;;;;;;8.49;68.68;101403.72;5038117;28;20567;-73
2020/12/20 07:28:37;;;;;;;10.00;9.00;;;;;;;8.62;68.37;101404.97;5038452;28;20502;-73
2020/12/20 07:31:03;;;;;;;10.43;9.03;;;;;;;8.58;68.44;101411.78;5037125;28;20173;-73
2020/12/20 07:33:28;;;;;;;9.27;8.47;;;;;;;8.46;68.84;101408.84;5038130;28;20253;-73
2020/12/20 07:35:54;;;;;;;9.67;8.77;;;;;;;8.30;69.70;101404.88;5038325;28;20415;-73
2020/12/20 07:38:19;;;;;;;10.40;9.40;;;;;;;8.81;67.88;101411.56;5037745;28;20178;-72
2020/12/20 07:40:45;;;;;;;9.97;9.00;;;;;;;8.67;68.09;101418.97;5037487;28;20296;-73
2020/12/20 07:43:10;;;;;;;10.30;9.33;;;;;;;8.23;69.56;101421.13;5038112;28;20464;-73
2020/12/20 07:45:35;;;;;;;9.83;8.83;;;;;;;8.30;69.14;101417.00;5037606;28;20447;-73
2020/12/20 07:48:01;;;;;;;9.70;8.80;;;;;;;8.54;69.15;101419.47;5037643;28;20182;-73
2020/12/20 07:50:26;;;;;;;9.90;8.90;;;;;;;8.42;69.09;101420.81;5038007;28;20179;-72
2020/12/20 07:52:52;;;;;;;9.30;8.40;;;;;;;8.43;69.33;101437.31;5037476;28;20265;-73
2020/12/20 07:55:18;;;;;;;10.73;8.73;;;;;;;8.37;68.86;101438.00;5037455;28;20231;-72
2020/12/20 07:57:46;;;;;;;9.77;8.33;;;;;;;8.17;69.42;101441.72;5037844;28;20186;-72
2020/12/20 08:00:12;;;;;;;8.97;8.17;;;;;;;8.26;68.84;101431.59;5037243;28;20166;-73
2020/12/20 08:02:38;;;;;;;9.60;8.77;;;;;;;8.31;69.48;101424.84;5037619;28;20447;-72
2020/12/20 08:05:06;;;;;;;10.67;9.60;;;;;;;8.34;69.33;101424.06;5037760;28;20185;-73
2020/12/20 08:07:32;;;;;;;10.60;9.57;;;;;;;8.49;68.73;101414.13;5037364;28;20563;-72
2020/12/20 08:09:57;;;;;;;10.50;9.40;;;;;;;8.35;69.60;101420.59;5036719;28;20498;-72
2020/12/20 08:12:22;;;;;;;11.37;10.27;;;;;;;8.25;69.74;101435.03;5036969;28;20202;-71
2020/12/20 08:14:59;;;;;;;9.10;8.30;;;;;;;8.43;69.06;101435.59;5037253;28;20166;-73
2020/12/20 08:17:25;;;;;;;9.53;8.60;;;;;;;8.36;68.47;101453.53;5037180;28;20197;-72
2020/12/20 08:19:50;;;;;;;9.63;8.70;;;;;;;8.59;68.63;101454.25;5036734;28;20412;-72
2020/12/20 08:22:17;;;;;;;10.30;9.30;;;;;;;8.52;68.24;101447.13;5037043;28;20452;-72
2020/12/20 08:24:45;;;;;;;9.83;8.93;;;;;;;8.55;68.51;101453.28;5036769;28;20218;-73
2020/12/20 08:27:23;;;;;;;9.93;9.03;;;;;;;8.80;67.68;101451.41;5036992;28;20480;-72
2020/12/20 08:29:50;;;;;;;10.20;9.20;;;;;;;8.49;68.07;101458.31;5036964;28;20416;-73
2020/12/20 08:32:20;;;;;;;9.87;8.87;;;;;;;8.22;69.64;101458.31;5036874;28;20682;-72
2020/12/20 08:34:46;;;;;;;10.17;9.27;;;;;;;8.38;68.42;101455.34;5036783;28;20435;-72
2020/12/20 08:37:13;;;;;;;9.97;9.07;;;;;;;8.27;68.84;101451.56;5037082;28;20411;-73
2020/12/20 08:39:39;;;;;;;10.93;9.80;;;;;;;8.61;68.29;101450.00;5036736;28;20435;-72
2020/12/20 08:42:11;;;;;;;9.87;8.90;;;;;;;8.42;68.49;101454.59;5036730;28;20416;-72
2020/12/20 08:44:38;;;;;;;9.73;8.83;;;;;;;8.42;68.92;101453.72;5036534;28;20197;-72
2020/12/20 08:47:05;;;;;;;10.70;9.00;;;;;;;8.60;67.66;101450.81;5036222;28;20597;-72
2020/12/20 08:49:30;;;;;;;10.50;9.40;;;;;;;8.63;67.82;101448.31;5036810;28;20442;-73
2020/12/20 08:52:13;;;;;;;11.90;9.40;;;;;;;8.62;68.41;101443.06;5036548;28;20461;-73
2020/12/20 08:54:46;;;;;;;11.47;10.33;;;;;;;8.60;68.11;101443.03;5036621;28;20597;-71
2020/12/20 08:57:11;;;;;;;11.40;9.17;;;;;;;8.54;67.92;101438.53;5035943;28;20399;-75
2020/12/20 08:59:41;;;;;;;11.60;10.50;;;;;;;8.82;67.55;101443.63;5036581;28;20851;-72
2020/12/20 09:02:08;;;;;;;11.27;10.03;;;;;;;8.88;67.20;101436.03;5036008;28;20612;-72
2020/12/20 09:04:36;;;;;;;10.23;9.23;;;;;;;8.75;67.99;101438.28;5036552;28;20668;-72
2020/12/20 09:07:11;;;;;;;10.30;9.37;;;;;;;8.67;67.96;101444.09;5036668;28;20449;-74
2020/12/20 09:09:38;;;;;;;10.50;9.50;;;;;;;8.75;67.94;101451.28;5036392;28;20889;-73
2020/12/20 09:12:10;;;;;;;13.33;11.70;;;;;;;8.85;67.07;101454.13;5036853;28;20671;-74
2020/12/20 09:14:35;;;;;;;10.77;9.67;;;;;;;8.79;67.53;101439.22;5040649;28;20395;-74
2020/12/20 09:17:01;;;;;;;10.80;9.70;;;;;;;8.73;67.69;101447.75;5040573;28;20551;-74
2020/12/20 09:19:26;;;;;;;9.87;8.90;;;;;;;8.64;68.09;101444.88;5041116;28;20567;-74
2020/12/20 09:21:51;;;;;;;9.83;8.80;;;;;;;8.70;68.30;101451.97;5040538;28;20178;-74
2020/12/20 09:24:16;;;;;;;12.10;9.93;;;;;;;8.81;67.77;101457.47;5040136;28;20253;-73
2020/12/20 09:26:54;;;;;;;10.00;9.07;;;;;;;8.90;67.56;101447.34;5040517;28;20574;-72
2020/12/20 09:29:19;;;;;;;10.63;9.63;;;;;;;8.56;67.61;101459.38;5040119;28;20265;-72
2020/12/20 09:31:44;;;;;;;10.37;9.37;;;;;;;8.96;66.97;101449.22;5040264;28;20409;-72
2020/12/20 09:34:10;;;;;;;11.20;10.00;;;;;;;9.09;67.07;101452.22;5040362;28;20174;-73
2020/12/20 09:36:35;;;;;;;10.63;9.63;;;;;;;9.14;66.21;101461.88;5040355;28;20170;-72
2020/12/20 09:39:03;;;;;;;10.20;9.27;;;;;;;8.99;66.64;101455.38;5040184;28;20232;-71
2020/12/20 09:41:30;;;;;;;10.87;9.83;;;;;;;8.72;67.46;101451.16;5040167;28;20586;-73
2020/12/20 09:43:56;;;;;;;10.90;9.90;;;;;;;9.07;66.57;101460.81;5040199;28;20413;-72
2020/12/20 09:46:23;;;;;;;10.20;9.30;;;;;;;9.11;67.10;101460.06;5040259;28;20464;-72
2020/12/20 09:48:49;;;;;;;9.83;8.93;;;;;;;9.37;65.90;101459.88;5039720;28;20413;-73
2020/12/20 09:51:16;;;;;;;10.70;9.60;;;;;;;9.01;66.81;101453.72;5039775;28;20428;-72
2020/12/20 09:53:41;;;;;;;11.70;10.53;;;;;;;8.85;67.54;101455.00;5040186;28;20174;-73
2020/12/20 09:56:07;;;;;;;10.20;9.20;;;;;;;8.74;67.65;101448.59;5039832;28;20391;-73
2020/12/20 09:58:32;;;;;;;10.33;9.23;;;;;;;9.03;66.43;101459.84;5039812;28;20174;-72
2020/12/20 10:00:57;;;;;;;11.07;10.07;;;;;;;9.10;66.95;101453.94;5039764;28;20170;-72
2020/12/20 10:03:25;;;;;;;11.00;10.00;;;;;;;9.20;65.88;101446.41;5039617;28;20255;-72
2020/12/20 10:05:50;;;;;;;10.47;9.47;;;;;;;9.26;65.37;101444.84;5039533;28;20269;-71
2020/12/20 10:08:16;;;;;;;10.00;9.10;;;;;;;9.31;65.99;101444.97;5039784;28;20874;-73
2020/12/20 10:10:41;;;;;;;10.90;9.80;;;;;;;9.13;66.79;101444.47;5039547;28;20198;-73
2020/12/20 10:13:07;;;;;;;11.63;10.03;;;;;;;9.18;66.46;101442.91;5039399;28;20213;-72
2020/12/20 10:15:32;;;;;;;10.80;9.80;;;;;;;9.03;66.79;101446.84;5040020;28;20182;-72
2020/12/20 10:18:01;;;;;;;10.30;9.40;;;;;;;9.18;66.82;101441.16;5039522;28;20443;-72
2020/12/20 10:20:31;;;;;;;10.50;9.37;;;;;;;9.32;66.81;101443.25;5039386;28;20174;-72
2020/12/20 10:22:57;;;;;;;10.00;9.13;;;;;;;9.45;66.28;101437.53;5039477;28;20485;-72
2020/12/20 10:25:22;;;;;;;12.63;9.90;;;;;;;9.49;65.94;101446.31;5037773;28;20439;-72
2020/12/20 10:27:47;;;;;;;11.37;10.27;;;;;;;9.50;65.02;101445.44;5039390;28;20227;-72
2020/12/20 10:30:13;;;;;;;10.67;9.70;;;;;;;9.45;66.11;101442.72;5039505;28;20181;-73
2020/12/20 10:32:39;;;;;;;11.77;10.47;;;;;;;9.28;66.19;101434.47;5039099;28;20174;-71
2020/12/20 10:35:04;;;;;;;12.83;10.40;;;;;;;9.48;65.97;101440.19;5037794;28;20434;-75
2020/12/20 10:37:30;;;;;;;10.27;9.37;;;;;;;9.36;66.00;101443.38;5039205;28;20174;-75
2020/12/20 10:39:55;;;;;;;10.40;9.50;;;;;;;9.08;66.48;101427.03;5038874;28;20178;-74
2020/12/20 10:42:20;;;;;;;11.00;10.00;;;;;;;9.23;66.94;101428.28;5039385;28;20178;-76
2020/12/20 10:44:46;;;;;;;11.27;10.17;;;;;;;9.71;65.31;101419.06;5039330;28;20746;-75
2020/12/20 10:47:11;;;;;;;11.37;10.37;;;;;;;9.25;66.45;101419.69;5037486;28;20213;-73
2020/12/20 10:49:36;;;;;;;11.60;10.50;;;;;;;9.64;65.51;101417.16;5038191;28;20439;-74
2020/12/20 10:52:01;;;;;;;10.67;9.67;;;;;;;9.53;65.73;101419.50;5039058;28;20312;-73
2020/12/20 10:54:29;;;;;;;12.13;10.33;;;;;;;9.25;66.55;101422.28;5038732;28;20170;-73
2020/12/20 10:56:59;;;;;;;12.20;10.97;;;;;;;9.47;66.13;101420.25;5038767;28;20179;-75
2020/12/20 10:59:29;;;;;;;11.87;10.73;;;;;;;9.52;66.69;101425.53;5039037;28;20421;-76
2020/12/20 11:01:54;;;;;;;11.00;10.00;;;;;;;9.55;65.69;101417.81;5038637;28;20814;-75
2020/12/20 11:04:21;;;;;;;11.50;10.30;;;;;;;9.42;66.70;101421.84;5038576;28;20417;-75
2020/12/20 11:06:46;;;;;;;11.77;10.43;;;;;;;9.83;65.39;101413.28;5038776;28;20205;-74
2020/12/20 11:09:11;;;;;;;11.27;10.17;;;;;;;9.43;67.25;101423.56;5038215;28;20449;-75
2020/12/20 11:11:37;;;;;;;11.13;10.13;;;;;;;9.43;67.16;101406.25;5038619;28;20193;-75
2020/12/20 11:14:02;;;;;;;12.50;11.20;;;;;;;9.45;66.91;101411.50;5038859;28;20466;-74
2020/12/20 11:16:28;;;;;;;12.77;10.40;;;;;;;9.31;67.36;101403.34;5031705;28;20570;-77
2020/12/20 11:18:53;;;;;;;12.10;10.90;;;;;;;9.50;66.43;101406.38;5022810;28;20443;-71
2020/12/20 11:21:19;;;;;;;12.00;10.77;;;;;;;9.35;67.03;101415.59;5018750;28;20462;-71
2020/12/20 11:23:46;;;;;;;12.97;11.33;;;;;;;9.10;68.39;101420.13;5018316;28;20262;-71
2020/12/20 11:26:19;;;;;;;12.70;11.60;;;;;;;9.26;67.47;101410.16;5018302;28;20453;-73